createdAt,value
2022-12-31T00:00:08.047Z,99747.84
2022-12-31T00:02:35.380Z,99740.63
2022-12-31T00:05:02.336Z,99683.78
2022-12-31T00:07:29.168Z,99656.28
2022-12-31T00:09:55.697Z,99603.16
2022-12-31T00:12:22.449Z,99639.28
2022-12-31T00:14:49.647Z,99411.78
2022-12-31T00:17:16.182Z,99734.72
2022-12-31T00:19:42.756Z,99606.84
2022-12-31T00:22:09.396Z,99687.59
2022-12-31T00:24:36.465Z,99622.03
2022-12-31T00:27:03.198Z,99665.28
2022-12-31T00:29:29.848Z,99691.69
2022-12-31T00:31:56.520Z,99653.94
2022-12-31T00:34:23.526Z,99689.56
2022-12-31T00:36:50.119Z,99726.91
2022-12-31T00:39:16.775Z,99568.16
2022-12-31T00:41:44.189Z,99597.38
2022-12-31T00:44:12.256Z,99721.88
2022-12-31T00:49:05.453Z,99574.19
2022-12-31T00:51:32.138Z,99679.91
2022-12-31T00:53:59.075Z,99675.53
2022-12-31T00:56:28.209Z,99508.22
2022-12-31T00:58:55.336Z,99733.84
2022-12-31T01:01:30.176Z,99743.19
2022-12-31T01:04:06.368Z,99658.38
2022-12-31T01:06:33.395Z,99738.34
2022-12-31T01:09:01.252Z,99634.09
2022-12-31T01:11:30.694Z,99721.59
2022-12-31T01:14:06.078Z,99710.97
2022-12-31T01:16:32.699Z,99710.38
2022-12-31T01:19:01.061Z,99707.34
2022-12-31T01:21:28.637Z,99695.00
2022-12-31T01:23:55.258Z,99668.19
2022-12-31T01:26:22.139Z,99683.13
2022-12-31T01:28:48.853Z,99559.44
2022-12-31T01:31:18.514Z,99675.56
2022-12-31T01:33:45.435Z,99681.50
2022-12-31T01:36:14.311Z,99617.81
2022-12-31T01:38:41.771Z,99586.72
2022-12-31T01:41:12.326Z,99642.00
2022-12-31T01:43:55.444Z,99669.34
2022-12-31T01:46:27.593Z,99677.09
2022-12-31T01:48:57.813Z,99587.53
2022-12-31T01:51:25.897Z,99583.72
2022-12-31T01:53:52.591Z,99662.28
2022-12-31T01:56:21.943Z,99637.56
2022-12-31T01:58:51.302Z,99456.25
2022-12-31T02:01:23.819Z,99565.25
2022-12-31T02:03:51.359Z,99622.78
2022-12-31T02:06:24.212Z,99647.75
2022-12-31T02:08:51.548Z,99385.94
2022-12-31T02:11:30.369Z,99410.59
2022-12-31T02:13:59.957Z,99552.28
2022-12-31T02:16:39.968Z,99642.84
2022-12-31T02:19:06.703Z,99635.34
2022-12-31T02:22:02.839Z,99626.19
2022-12-31T02:24:43.757Z,99626.69
2022-12-31T02:27:18.208Z,99523.28
2022-12-31T02:30:03.139Z,99630.00
2022-12-31T02:32:37.204Z,99387.41
2022-12-31T02:35:14.727Z,99619.50
2022-12-31T02:37:43.516Z,99632.34
2022-12-31T02:40:12.016Z,99624.84
2022-12-31T02:42:38.641Z,99633.31
2022-12-31T02:45:06.057Z,99583.00
2022-12-31T02:47:35.739Z,99611.31
2022-12-31T02:50:32.816Z,99623.00
2022-12-31T02:53:20.575Z,99580.31
2022-12-31T02:55:47.147Z,99606.59
2022-12-31T02:58:20.100Z,99532.13
2022-12-31T03:01:12.065Z,99616.91
2022-12-31T03:03:39.680Z,99602.97
2022-12-31T03:06:08.040Z,99586.28
2022-12-31T03:08:54.848Z,99449.03
2022-12-31T03:11:40.389Z,99522.69
2022-12-31T03:14:07.058Z,99587.63
2022-12-31T03:16:34.998Z,99561.44
2022-12-31T03:19:20.285Z,99559.47
2022-12-31T03:22:05.627Z,99542.78
2022-12-31T03:24:50.793Z,99598.63
2022-12-31T03:27:17.453Z,99570.03
2022-12-31T03:29:43.965Z,99585.00
2022-12-31T03:32:10.550Z,99636.97
2022-12-31T03:34:37.307Z,99560.03
2022-12-31T03:37:04.197Z,99442.22
2022-12-31T03:39:30.764Z,99636.34
2022-12-31T03:41:57.403Z,99619.50
2022-12-31T03:44:23.916Z,99400.41
2022-12-31T03:46:50.516Z,99673.69
2022-12-31T03:49:17.202Z,99612.00
2022-12-31T03:51:43.808Z,99633.50
2022-12-31T03:54:10.706Z,99596.53
2022-12-31T03:56:37.375Z,99678.34
2022-12-31T03:59:04.010Z,99383.13
2022-12-31T04:01:30.719Z,99691.00
2022-12-31T04:03:57.500Z,99624.50
2022-12-31T04:06:24.187Z,99678.66
2022-12-31T04:08:50.770Z,99655.03
2022-12-31T04:11:20.954Z,99380.19
2022-12-31T04:13:47.884Z,99637.34
2022-12-31T04:16:14.769Z,99272.59
2022-12-31T04:18:41.502Z,99618.97
2022-12-31T04:21:08.119Z,99566.50
2022-12-31T04:23:34.784Z,99656.69
2022-12-31T04:26:01.404Z,99558.66
2022-12-31T04:28:28.119Z,99635.31
2022-12-31T04:30:54.794Z,99465.19
2022-12-31T04:33:21.395Z,99651.75
2022-12-31T04:35:48.457Z,99640.53
2022-12-31T04:38:15.266Z,99584.47
2022-12-31T04:41:01.841Z,99574.59
2022-12-31T04:43:28.736Z,99596.94
2022-12-31T04:45:55.362Z,99646.88
2022-12-31T04:48:22.041Z,99392.41
2022-12-31T04:50:48.577Z,99673.91
2022-12-31T04:53:15.276Z,99348.50
2022-12-31T04:55:41.874Z,99611.56
2022-12-31T04:58:08.459Z,99517.16
2022-12-31T05:00:35.235Z,99531.81
2022-12-31T05:03:02.196Z,99704.50
2022-12-31T05:05:28.866Z,99638.97
2022-12-31T05:07:55.668Z,99637.97
2022-12-31T05:10:23.415Z,99605.31
2022-12-31T05:12:50.065Z,99635.59
2022-12-31T05:15:16.666Z,99678.47
2022-12-31T05:17:43.224Z,99564.63
2022-12-31T05:20:10.215Z,99600.44
2022-12-31T05:22:37.634Z,99569.31
2022-12-31T05:25:04.722Z,99611.25
2022-12-31T05:27:31.708Z,99646.88
2022-12-31T05:29:58.797Z,99668.19
2022-12-31T05:32:25.796Z,99655.97
2022-12-31T05:34:53.613Z,99656.34
2022-12-31T05:37:20.193Z,99684.09
2022-12-31T05:39:46.789Z,99432.53
2022-12-31T05:42:13.331Z,99466.44
2022-12-31T05:44:40.138Z,99635.59
2022-12-31T05:47:06.741Z,99657.47
2022-12-31T05:49:33.311Z,99435.03
2022-12-31T05:52:00.100Z,99589.34
2022-12-31T05:54:26.804Z,99685.41
2022-12-31T05:56:53.847Z,99658.72
2022-12-31T05:59:20.503Z,99609.72
2022-12-31T06:01:47.341Z,99624.28
2022-12-31T06:04:14.251Z,99661.22
2022-12-31T06:06:41.140Z,99620.44
2022-12-31T06:09:07.740Z,99670.78
2022-12-31T06:11:34.492Z,99540.88
2022-12-31T06:14:01.255Z,99625.38
2022-12-31T06:16:28.803Z,99723.28
2022-12-31T06:18:55.497Z,99742.66
2022-12-31T06:21:22.558Z,99673.16
2022-12-31T06:23:49.264Z,99672.59
2022-12-31T06:26:15.908Z,99655.34
2022-12-31T06:28:42.542Z,99528.38
2022-12-31T06:31:12.572Z,99749.28
2022-12-31T06:33:39.428Z,99666.31
2022-12-31T06:36:07.731Z,99688.09
2022-12-31T06:38:36.975Z,99519.53
2022-12-31T06:41:07.950Z,99329.75
2022-12-31T06:43:35.351Z,99330.38
2022-12-31T06:46:03.425Z,99522.19
2022-12-31T06:48:30.184Z,99714.19
2022-12-31T06:50:57.155Z,99754.78
2022-12-31T06:53:23.708Z,99673.31
2022-12-31T06:55:50.798Z,99756.75
2022-12-31T06:58:17.817Z,99778.22
2022-12-31T07:01:00.488Z,99786.97
2022-12-31T07:03:40.877Z,99764.63
2022-12-31T07:06:15.148Z,99759.91
2022-12-31T07:08:52.444Z,99731.44
2022-12-31T07:11:21.663Z,99764.78
2022-12-31T07:14:07.077Z,99789.41
2022-12-31T07:16:48.851Z,99785.53
2022-12-31T07:19:30.298Z,99708.16
2022-12-31T07:21:59.961Z,99461.56
2022-12-31T07:24:27.305Z,99797.88
2022-12-31T07:27:24.997Z,99820.25
2022-12-31T07:30:18.118Z,99786.22
2022-12-31T07:32:54.167Z,99421.00
2022-12-31T07:35:39.855Z,99793.28
2022-12-31T07:38:31.455Z,99785.13
2022-12-31T07:41:09.349Z,99791.53
2022-12-31T07:44:01.031Z,99784.03
2022-12-31T07:46:36.219Z,99810.66
2022-12-31T07:49:03.291Z,99607.56
2022-12-31T07:51:31.341Z,99815.09
2022-12-31T07:53:58.551Z,99509.88
2022-12-31T07:56:25.354Z,99529.16
2022-12-31T07:59:22.467Z,99836.38
2022-12-31T08:02:00.157Z,99594.09
2022-12-31T08:04:39.251Z,99824.53
2022-12-31T08:07:31.061Z,99833.25
2022-12-31T08:10:35.674Z,99828.81
2022-12-31T08:13:05.759Z,99771.81
2022-12-31T08:15:33.233Z,99841.56
2022-12-31T08:18:00.336Z,99850.72
2022-12-31T08:20:27.519Z,99783.50
2022-12-31T08:23:19.833Z,99833.25
2022-12-31T08:26:17.176Z,99831.31
2022-12-31T08:29:13.133Z,99627.81
2022-12-31T08:31:47.793Z,99828.41
2022-12-31T08:34:32.624Z,99834.91
2022-12-31T08:37:31.782Z,99836.03
2022-12-31T08:39:58.328Z,99846.56
2022-12-31T08:42:24.929Z,99846.00
2022-12-31T08:45:17.686Z,99740.41
2022-12-31T08:47:47.040Z,99853.50
2022-12-31T08:50:18.346Z,99848.03
2022-12-31T08:52:46.219Z,99443.72
2022-12-31T08:55:19.034Z,99689.41
2022-12-31T08:58:08.727Z,99881.56
2022-12-31T09:00:36.255Z,99405.84
2022-12-31T09:03:40.722Z,99842.84
2022-12-31T09:06:18.873Z,99432.16
2022-12-31T09:09:07.231Z,99897.94
2022-12-31T09:12:11.715Z,99873.03
2022-12-31T09:14:51.860Z,99758.72
2022-12-31T09:17:18.480Z,99870.72
2022-12-31T09:19:45.223Z,99862.84
2022-12-31T09:22:12.085Z,99676.31
2022-12-31T09:24:41.127Z,99788.75
2022-12-31T09:27:27.406Z,99868.06
2022-12-31T09:30:08.375Z,99848.31
2022-12-31T09:32:51.929Z,99867.84
2022-12-31T09:35:40.937Z,99890.19
2022-12-31T09:38:19.882Z,99905.25
2022-12-31T09:41:00.170Z,99918.13
2022-12-31T09:44:08.265Z,99912.16
2022-12-31T09:47:12.375Z,99956.25
2022-12-31T09:49:57.996Z,99940.50
2022-12-31T09:52:58.789Z,99822.78
2022-12-31T09:56:03.251Z,99952.28
2022-12-31T09:58:49.271Z,99959.03
2022-12-31T10:01:50.059Z,99968.59
2022-12-31T10:04:27.619Z,99892.72
2022-12-31T10:07:25.289Z,99882.66
2022-12-31T10:09:51.832Z,99976.47
2022-12-31T10:12:54.357Z,99986.06
2022-12-31T10:15:36.275Z,99980.25
2022-12-31T10:18:23.297Z,99984.78
2022-12-31T10:21:34.773Z,99944.38
2022-12-31T10:24:52.619Z,99994.50
2022-12-31T10:27:28.912Z,99984.00
2022-12-31T10:30:22.759Z,99746.97
2022-12-31T10:33:32.569Z,100007.28
2022-12-31T10:36:05.175Z,100003.38
2022-12-31T10:39:00.913Z,99964.22
2022-12-31T10:42:18.359Z,99993.56
2022-12-31T10:44:51.186Z,99991.44
2022-12-31T10:47:30.059Z,100004.88
2022-12-31T10:50:27.459Z,100009.25
2022-12-31T10:53:04.700Z,100028.19
2022-12-31T10:56:06.700Z,99911.53
2022-12-31T10:58:54.653Z,100013.06
2022-12-31T11:01:30.687Z,100024.72
2022-12-31T11:04:26.155Z,100031.63
2022-12-31T11:07:28.352Z,99890.34
2022-12-31T11:10:00.768Z,100013.81
2022-12-31T11:12:50.819Z,100001.56
2022-12-31T11:15:26.820Z,99999.16
2022-12-31T11:18:15.892Z,99994.66
2022-12-31T11:20:56.298Z,99704.88
2022-12-31T11:23:38.329Z,100007.41
2022-12-31T11:26:23.613Z,99709.78
2022-12-31T11:28:59.228Z,99531.44
2022-12-31T11:31:35.451Z,99939.19
2022-12-31T11:34:17.330Z,99992.25
2022-12-31T11:37:21.229Z,99987.47
2022-12-31T11:40:20.037Z,99994.06
2022-12-31T11:43:00.495Z,99915.59
2022-12-31T11:45:50.713Z,100003.78
2022-12-31T11:48:39.344Z,99982.16
2022-12-31T11:51:32.093Z,99992.41
2022-12-31T11:54:15.104Z,100007.28
2022-12-31T11:56:46.534Z,99944.59
2022-12-31T11:59:18.973Z,99949.03
2022-12-31T12:02:45.132Z,99969.31
2022-12-31T12:05:21.092Z,99945.50
2022-12-31T12:07:49.352Z,99911.31
2022-12-31T12:10:22.370Z,100003.81
2022-12-31T12:12:50.204Z,99967.06
2022-12-31T12:15:45.221Z,99788.19
2022-12-31T12:18:37.001Z,100005.88
2022-12-31T12:21:19.138Z,99960.03
2022-12-31T12:24:01.842Z,100027.56
2022-12-31T12:26:37.976Z,100027.56
2022-12-31T12:29:16.176Z,99754.72
2022-12-31T12:31:43.281Z,99992.47
2022-12-31T12:34:23.649Z,100016.91
2022-12-31T12:36:50.312Z,99778.00
2022-12-31T12:39:29.554Z,99967.19
2022-12-31T12:42:05.892Z,100040.16
2022-12-31T12:44:33.343Z,99754.31
2022-12-31T12:47:02.630Z,99965.66
2022-12-31T12:49:32.425Z,100048.19
2022-12-31T12:52:14.445Z,100019.91
2022-12-31T12:55:20.746Z,99804.22
2022-12-31T12:58:06.360Z,100011.25
2022-12-31T13:00:45.255Z,100017.91
2022-12-31T13:03:36.869Z,99951.72
2022-12-31T13:06:19.178Z,99988.53
2022-12-31T13:09:27.567Z,100040.06
2022-12-31T13:12:17.239Z,100033.84
2022-12-31T13:14:53.430Z,100034.81
2022-12-31T13:18:08.246Z,100042.69
2022-12-31T13:20:41.761Z,99938.50
2022-12-31T13:23:23.617Z,100038.00
2022-12-31T13:26:13.230Z,99939.28
2022-12-31T13:28:42.795Z,100046.56
2022-12-31T13:31:14.517Z,99970.28
2022-12-31T13:33:44.750Z,100009.97
2022-12-31T13:36:17.355Z,100041.78
2022-12-31T13:38:51.211Z,99855.19
2022-12-31T13:41:38.408Z,100068.34
2022-12-31T13:44:23.280Z,100053.41
2022-12-31T13:47:06.984Z,100049.09
2022-12-31T13:49:40.591Z,100041.56
2022-12-31T13:52:24.930Z,99779.63
2022-12-31T13:54:56.665Z,99807.63
2022-12-31T13:57:42.982Z,100064.03
2022-12-31T14:00:19.511Z,99615.34
2022-12-31T14:03:01.702Z,100063.84
2022-12-31T14:05:31.475Z,100069.81
2022-12-31T14:08:00.300Z,100036.53
2022-12-31T14:10:32.668Z,100038.19
2022-12-31T14:13:06.562Z,100060.66
2022-12-31T14:15:39.030Z,100044.50
2022-12-31T14:18:20.862Z,100077.84
2022-12-31T14:20:56.768Z,100068.78
2022-12-31T14:23:45.719Z,99935.34
2022-12-31T14:26:23.926Z,99969.66
2022-12-31T14:29:02.415Z,100005.91
2022-12-31T14:31:48.048Z,100075.38
2022-12-31T14:34:24.304Z,100061.50
2022-12-31T14:37:00.275Z,99899.94
2022-12-31T14:39:45.140Z,100071.56
2022-12-31T14:42:48.239Z,100083.53
2022-12-31T14:45:31.340Z,100089.00
2022-12-31T14:48:10.192Z,100076.94
2022-12-31T14:50:37.906Z,100056.53
2022-12-31T14:53:04.425Z,100064.66
2022-12-31T14:55:38.925Z,100018.75
2022-12-31T14:58:28.808Z,99837.72
2022-12-31T15:00:57.644Z,99844.94
2022-12-31T15:03:26.910Z,100051.03
2022-12-31T15:06:12.056Z,100085.72
2022-12-31T15:09:09.595Z,100094.72
2022-12-31T15:11:58.857Z,100102.81
2022-12-31T15:14:56.663Z,100106.81
2022-12-31T15:17:23.342Z,100095.63
2022-12-31T15:20:18.232Z,100094.75
2022-12-31T15:22:52.399Z,100082.03
2022-12-31T15:25:22.140Z,100088.50
2022-12-31T15:27:49.327Z,100062.97
2022-12-31T15:30:44.904Z,100096.81
2022-12-31T15:33:29.406Z,100037.06
2022-12-31T15:35:57.020Z,99900.66
2022-12-31T15:38:34.276Z,100106.50
2022-12-31T15:41:12.195Z,99821.84
2022-12-31T15:43:49.468Z,100102.75
2022-12-31T15:46:26.345Z,99940.75
2022-12-31T15:49:03.877Z,99934.03
2022-12-31T15:51:43.992Z,100039.63
2022-12-31T15:54:24.444Z,99953.75
2022-12-31T15:56:52.019Z,99799.13
2022-12-31T15:59:21.413Z,100097.25
2022-12-31T16:01:50.702Z,99928.53
2022-12-31T16:04:18.933Z,100099.06
2022-12-31T16:06:50.642Z,100047.38
2022-12-31T16:09:24.621Z,100094.50
2022-12-31T16:11:52.308Z,100011.81
2022-12-31T16:14:37.489Z,100112.81
2022-12-31T16:17:05.185Z,100068.97
2022-12-31T16:19:43.157Z,100096.75
2022-12-31T16:22:17.323Z,100114.00
2022-12-31T16:25:19.472Z,100069.78
2022-12-31T16:27:31.795Z,100058.69
2022-12-31T16:30:01.961Z,99888.66
2022-12-31T16:32:34.930Z,100105.75
2022-12-31T16:35:01.599Z,100067.56
2022-12-31T16:37:28.879Z,100031.53
2022-12-31T16:39:58.441Z,100113.78
2022-12-31T16:42:26.971Z,100088.66
2022-12-31T16:44:56.106Z,100003.34
2022-12-31T16:47:24.623Z,100059.25
2022-12-31T16:50:04.020Z,100098.09
2022-12-31T16:52:41.754Z,100068.38
2022-12-31T16:55:11.787Z,99974.44
2022-12-31T16:57:38.485Z,100097.66
2022-12-31T17:00:07.086Z,100043.81
2022-12-31T17:02:39.640Z,100013.22
2022-12-31T17:05:19.662Z,100009.53
2022-12-31T17:07:46.323Z,100069.72
2022-12-31T17:10:20.518Z,100087.09
2022-12-31T17:13:26.930Z,100043.16
2022-12-31T17:15:45.409Z,100071.53
2022-12-31T17:18:19.130Z,100101.13
2022-12-31T17:20:46.431Z,99883.94
2022-12-31T17:23:22.618Z,100082.25
2022-12-31T17:25:58.063Z,99986.13
2022-12-31T17:28:25.659Z,100093.56
2022-12-31T17:30:52.761Z,99809.84
2022-12-31T17:33:22.435Z,100082.94
2022-12-31T17:35:54.859Z,100093.41
2022-12-31T17:38:21.364Z,100078.38
2022-12-31T17:41:08.244Z,100072.09
2022-12-31T17:43:38.773Z,100040.91
2022-12-31T17:46:14.192Z,100011.22
2022-12-31T17:48:41.635Z,99952.72
2022-12-31T17:51:08.441Z,100024.56
2022-12-31T17:53:35.474Z,100056.94
2022-12-31T17:56:06.921Z,99843.88
2022-12-31T17:58:36.463Z,100066.41
2022-12-31T18:01:06.579Z,99947.03
2022-12-31T18:03:33.328Z,99962.06
2022-12-31T18:06:00.335Z,99896.44
2022-12-31T18:08:27.122Z,100028.09
2022-12-31T18:10:54.477Z,99955.94
2022-12-31T18:13:24.514Z,99935.31
2022-12-31T18:15:51.820Z,99859.22
2022-12-31T18:18:24.772Z,99707.41
2022-12-31T18:20:55.097Z,100031.53
2022-12-31T18:23:30.589Z,100073.69
2022-12-31T18:25:57.333Z,100068.44
2022-12-31T18:28:24.041Z,100072.31
2022-12-31T18:30:51.173Z,99854.19
2022-12-31T18:33:25.087Z,99967.75
2022-12-31T18:36:09.261Z,100047.41
2022-12-31T18:38:40.255Z,100048.91
2022-12-31T18:41:07.877Z,99925.50
2022-12-31T18:43:34.509Z,100061.88
2022-12-31T18:46:01.157Z,99954.75
2022-12-31T18:48:27.902Z,99974.03
2022-12-31T18:50:54.503Z,99947.34
2022-12-31T18:53:23.268Z,100058.81
2022-12-31T18:55:55.536Z,99982.50
2022-12-31T18:58:23.027Z,100040.25
2022-12-31T19:00:50.511Z,100063.50
2022-12-31T19:03:20.085Z,99946.34
2022-12-31T19:05:51.488Z,99909.06
2022-12-31T19:08:19.341Z,99968.28
2022-12-31T19:10:46.798Z,100066.34
2022-12-31T19:13:14.886Z,100063.78
2022-12-31T19:15:48.760Z,100056.06
2022-12-31T19:18:15.501Z,99943.06
2022-12-31T19:20:42.448Z,100058.31
2022-12-31T19:23:20.632Z,100049.44
2022-12-31T19:25:49.086Z,100057.19
2022-12-31T19:28:23.092Z,100078.66
2022-12-31T19:30:50.189Z,100015.53
2022-12-31T19:33:17.313Z,99756.06
2022-12-31T19:35:44.631Z,99912.00
2022-12-31T19:38:29.074Z,100043.22
2022-12-31T19:40:55.941Z,100082.09
2022-12-31T19:43:23.485Z,100057.81
2022-12-31T19:45:50.840Z,99913.38
2022-12-31T19:48:30.274Z,100016.72
2022-12-31T19:50:59.209Z,100040.22
2022-12-31T19:53:27.338Z,100094.69
2022-12-31T19:55:54.520Z,99950.78
2022-12-31T19:58:25.545Z,100041.75
2022-12-31T20:00:58.276Z,100081.53
2022-12-31T20:03:29.044Z,99608.75
2022-12-31T20:06:08.037Z,99591.59
2022-12-31T20:08:36.332Z,100121.91
2022-12-31T20:11:15.570Z,99798.78
2022-12-31T20:13:42.908Z,99946.59
2022-12-31T20:16:12.754Z,99738.59
2022-12-31T20:18:41.455Z,100027.97
2022-12-31T20:21:13.951Z,99886.97
2022-12-31T20:23:41.050Z,99740.88
2022-12-31T20:26:07.923Z,99638.44
2022-12-31T20:28:35.928Z,99785.63
2022-12-31T20:31:13.612Z,99924.06
2022-12-31T20:33:41.124Z,99823.19
2022-12-31T20:36:12.368Z,99633.13
2022-12-31T20:38:46.910Z,99768.41
2022-12-31T20:41:19.259Z,99669.50
2022-12-31T20:43:46.839Z,99648.59
2022-12-31T20:46:18.956Z,99904.69
2022-12-31T20:48:46.768Z,99651.44
2022-12-31T20:51:14.909Z,100147.53
2022-12-31T20:53:47.883Z,100183.50
2022-12-31T20:56:14.970Z,99629.56
2022-12-31T20:58:42.013Z,99903.34
2022-12-31T21:01:10.164Z,99665.53
2022-12-31T21:06:25.405Z,100188.53
2022-12-31T21:08:53.951Z,100135.28
2022-12-31T21:11:39.329Z,99944.78
2022-12-31T21:14:07.327Z,99841.72
2022-12-31T21:16:34.396Z,99941.06
2022-12-31T21:19:01.744Z,100146.72
2022-12-31T21:21:28.769Z,99864.38
2022-12-31T21:23:55.671Z,99836.22
2022-12-31T21:26:22.633Z,99787.94
2022-12-31T21:28:49.409Z,99994.22
2022-12-31T21:31:19.023Z,99943.88
2022-12-31T21:33:46.559Z,100177.47
2022-12-31T21:36:16.566Z,99725.66
2022-12-31T21:38:44.802Z,99995.88
2022-12-31T21:41:34.098Z,100142.34
2022-12-31T21:44:02.357Z,100115.63
2022-12-31T21:46:29.411Z,99894.75
2022-12-31T21:48:57.939Z,99709.06
2022-12-31T21:51:24.899Z,100000.91
2022-12-31T21:53:51.882Z,100035.34
2022-12-31T21:56:21.223Z,100176.16
2022-12-31T21:59:17.370Z,100037.50
2022-12-31T22:02:04.121Z,100044.16
2022-12-31T22:07:19.946Z,99787.91
2022-12-31T22:09:46.811Z,99806.91
2022-12-31T22:12:13.617Z,99853.69
2022-12-31T22:15:15.467Z,100225.31
2022-12-31T22:17:27.737Z,100040.84
2022-12-31T22:22:41.894Z,99664.06
2022-12-31T22:25:10.364Z,100084.81
2022-12-31T22:27:37.440Z,99654.44
2022-12-31T22:30:05.800Z,99876.59
2022-12-31T22:32:32.609Z,100230.69
2022-12-31T22:34:59.392Z,99851.53
2022-12-31T22:40:15.522Z,99788.69
2022-12-31T22:42:42.403Z,100074.78
2022-12-31T22:45:09.632Z,99906.03
2022-12-31T22:47:36.544Z,99778.88
2022-12-31T22:50:03.360Z,99958.56
2022-12-31T22:52:31.161Z,99766.56
2022-12-31T22:54:58.387Z,99965.72
2022-12-31T22:57:25.295Z,99745.41
2022-12-31T22:59:52.174Z,99965.31
2022-12-31T23:02:20.374Z,99829.03
2022-12-31T23:04:47.277Z,100207.59
2022-12-31T23:07:14.117Z,100267.16
2022-12-31T23:09:59.644Z,100230.38
2022-12-31T23:12:26.422Z,100017.09
2022-12-31T23:15:11.958Z,99891.25
2022-12-31T23:17:57.238Z,100243.88
2022-12-31T23:20:43.714Z,99831.44
2022-12-31T23:23:15.834Z,99857.19
2022-12-31T23:25:45.485Z,99805.69
2022-12-31T23:28:25.762Z,99871.56
2022-12-31T23:30:53.158Z,99800.72
2022-12-31T23:33:26.906Z,100075.94
2022-12-31T23:59:25.191Z,99762.06
